Terminal Aerodrome Forecast
Issued by NWS Grand Junction, CO

Home | Current Version | Previous Version | Text Only | Print | Product List | Glossary On
Versions: 1 2 3 4 5 6 7 8 9 10 11 12 13 14 15 16 17 18 19 20
000
FTUS45 KGJT 230229 AAB
TAFGJT
TAF AMD
KGJT 230229Z 2302/2324 14008G18KT P6SM VCSH BKN200
     FM230300 12007KT P6SM BKN200
     FM231700 19004KT P6SM FEW200
     FM231900 25004KT P6SM FEW250=

USA.gov is the U.S. government's official web portal to all federal, state and local government web resources and services.